Terminal Aerodrome Forecast
Issued by NWS Memphis, TN

Home | Current Version | Previous Version | Text Only | Print | Product List | Glossary On
Versions: 1 2 3 4 5 6 7 8 9 10 11 12 13 14 15 16 17 18 19 20 21
000
FTUS44 KMEG 272322
TAFMKL
TAF
KMKL 272322Z 2800/2824 35008KT P6SM VCTS SCT045CB
      TEMPO 2800/2801 VRB10G25KT 2SM +TSRA OVC025CB
     FM280300 27003KT P6SM BKN060
     FM280600 31003KT 5SM BR SCT025
      TEMPO 2808/2812 3SM BR
     FM281200 36004KT P6SM OVC015
     FM282200 02005KT P6SM OVC050=

USA.gov is the U.S. government's official web portal to all federal, state and local government web resources and services.